TOM1PD EGKK-LEPA
Flight info
| Callsign | TOM1PD |
|---|---|
| Flight time | N/A |
| Altitude | 23000 |
| Route | SFD Y47 DRAKE/N0454F330 L151 SITET UN859 SOPIL DCT BALAN DCT EVPOK DCT NARAK DCT GAI DCT LOMRA DCT ROCAN DCT IBRAP DCT LUKEV DCT LORES |
| Aircraft | B789/H-SDE1E2E3FGHIJ2J3J4J5M1RWXY/LB1D1 |
Departure
| Time | 2026-05-07 09:55 |
|---|---|
| Airport | London Gatwick Airport (EGKK) |
Arrival
| Time | N/A |
|---|---|
| Airport | Palma de Mallorca Airport (LEPA) |
| Time | Latitude | Longitude | Altitude | Speed | Heading |
|---|---|---|---|---|---|
| 2026-05-07 09:15 | 51.15992 | -0.17997 | 217 ft | 0 kts | 78° |
| 2026-05-07 09:41 | 51.15988 | -0.18027 | 209 ft | 4 kts | 78° |
| 2026-05-07 09:41 | 51.15983 | -0.18063 | 214 ft | 2 kts | 77° |
| 2026-05-07 09:41 | 51.15981 | -0.18102 | 220 ft | 4 kts | 104° |
| 2026-05-07 09:42 | 51.15993 | -0.18130 | 219 ft | 4 kts | 166° |
| 2026-05-07 09:42 | 51.16018 | -0.18139 | 220 ft | 4 kts | 168° |
| 2026-05-07 09:42 | 51.16026 | -0.18142 | 220 ft | 0 kts | 168° |
| 2026-05-07 09:45 | 51.16022 | -0.18140 | 217 ft | 4 kts | 168° |
| 2026-05-07 09:46 | 51.15974 | -0.18124 | 220 ft | 8 kts | 168° |
| 2026-05-07 09:46 | 51.15912 | -0.18102 | 209 ft | 10 kts | 167° |
| 2026-05-07 09:46 | 51.15841 | -0.18077 | 215 ft | 11 kts | 167° |
| 2026-05-07 09:46 | 51.15771 | -0.18085 | 220 ft | 9 kts | 223° |
| 2026-05-07 09:47 | 51.15740 | -0.18159 | 220 ft | 7 kts | 211° |
| 2026-05-07 09:47 | 51.15686 | -0.18183 | 213 ft | 9 kts | 211° |
| 2026-05-07 09:47 | 51.15632 | -0.18234 | 219 ft | 9 kts | 185° |
| 2026-05-07 09:47 | 51.15572 | -0.18218 | 209 ft | 9 kts | 167° |
| 2026-05-07 09:48 | 51.15504 | -0.18195 | 215 ft | 11 kts | 168° |
| 2026-05-07 09:48 | 51.15431 | -0.18160 | 218 ft | 11 kts | 166° |
| 2026-05-07 09:48 | 51.15349 | -0.18131 | 213 ft | 13 kts | 167° |
| 2026-05-07 09:48 | 51.15260 | -0.18100 | 210 ft | 14 kts | 167° |
| 2026-05-07 09:49 | 51.15172 | -0.18070 | 218 ft | 10 kts | 172° |
| 2026-05-07 09:49 | 51.15126 | -0.18115 | 216 ft | 9 kts | 245° |
| 2026-05-07 09:49 | 51.15104 | -0.18250 | 214 ft | 15 kts | 257° |
| 2026-05-07 09:49 | 51.15080 | -0.18425 | 213 ft | 17 kts | 257° |
| 2026-05-07 09:50 | 51.15054 | -0.18611 | 215 ft | 18 kts | 257° |
| 2026-05-07 09:50 | 51.15028 | -0.18809 | 218 ft | 19 kts | 257° |
| 2026-05-07 09:50 | 51.14999 | -0.19014 | 213 ft | 19 kts | 257° |
| 2026-05-07 09:50 | 51.14971 | -0.19218 | 219 ft | 18 kts | 257° |
| 2026-05-07 09:51 | 51.14943 | -0.19417 | 217 ft | 19 kts | 257° |
| 2026-05-07 09:51 | 51.14914 | -0.19631 | 214 ft | 20 kts | 258° |
| 2026-05-07 09:51 | 51.14885 | -0.19840 | 219 ft | 19 kts | 258° |
| 2026-05-07 09:51 | 51.14855 | -0.20056 | 218 ft | 21 kts | 257° |
| 2026-05-07 09:52 | 51.14823 | -0.20291 | 214 ft | 23 kts | 257° |
| 2026-05-07 09:52 | 51.14794 | -0.20498 | 218 ft | 16 kts | 257° |
| 2026-05-07 09:52 | 51.14770 | -0.20671 | 208 ft | 17 kts | 257° |
| 2026-05-07 09:52 | 51.14745 | -0.20857 | 210 ft | 17 kts | 258° |
| 2026-05-07 09:53 | 51.14719 | -0.21048 | 215 ft | 18 kts | 258° |
| 2026-05-07 09:53 | 51.14694 | -0.21229 | 219 ft | 12 kts | 257° |
| 2026-05-07 09:53 | 51.14662 | -0.21328 | 218 ft | 9 kts | 206° |
| 2026-05-07 09:53 | 51.14603 | -0.21319 | 215 ft | 10 kts | 167° |
| 2026-05-07 09:54 | 51.14532 | -0.21247 | 217 ft | 14 kts | 122° |
| 2026-05-07 09:54 | 51.14531 | -0.21085 | 215 ft | 22 kts | 79° |
| 2026-05-07 09:54 | 51.14600 | -0.20588 | 218 ft | 74 kts | 77° |
| 2026-05-07 09:54 | 51.14753 | -0.19482 | 219 ft | 129 kts | 78° |
| 2026-05-07 09:55 | 51.14971 | -0.17861 | 364 ft | 160 kts | 85° |
| 2026-05-07 09:55 | 51.15175 | -0.16125 | 856 ft | 166 kts | 82° |
| 2026-05-07 09:55 | 51.15418 | -0.14307 | 1435 ft | 168 kts | 81° |
| 2026-05-07 09:55 | 51.15686 | -0.12458 | 1850 ft | 175 kts | 79° |
| 2026-05-07 09:56 | 51.15954 | -0.10513 | 2266 ft | 181 kts | 79° |
| 2026-05-07 09:56 | 51.16230 | -0.08487 | 2557 ft | 194 kts | 80° |
| 2026-05-07 09:56 | 51.15965 | -0.06323 | 2601 ft | 213 kts | 122° |
| 2026-05-07 09:56 | 51.14761 | -0.04876 | 2714 ft | 231 kts | 162° |
| 2026-05-07 09:57 | 51.13115 | -0.04541 | 3063 ft | 245 kts | 177° |
| 2026-05-07 09:57 | 51.11392 | -0.04241 | 3588 ft | 253 kts | 172° |
| 2026-05-07 09:57 | 51.09652 | -0.03678 | 4210 ft | 257 kts | 167° |
| 2026-05-07 09:57 | 51.07941 | -0.02781 | 4810 ft | 260 kts | 162° |
| 2026-05-07 09:58 | 51.06215 | -0.01956 | 5440 ft | 263 kts | 165° |
| 2026-05-07 09:58 | 51.04443 | -0.01159 | 6107 ft | 265 kts | 165° |
| 2026-05-07 09:58 | 51.02671 | -0.00331 | 6766 ft | 266 kts | 164° |
| 2026-05-07 09:58 | 51.00890 | 0.00522 | 7366 ft | 268 kts | 164° |
| 2026-05-07 09:59 | 50.99095 | 0.01377 | 7985 ft | 271 kts | 164° |
| 2026-05-07 09:59 | 50.97277 | 0.02231 | 8583 ft | 275 kts | 164° |
| 2026-05-07 09:59 | 50.95449 | 0.03093 | 9165 ft | 279 kts | 163° |
| 2026-05-07 09:59 | 50.93576 | 0.03978 | 9782 ft | 282 kts | 163° |
| 2026-05-07 10:00 | 50.91679 | 0.04873 | 10348 ft | 286 kts | 163° |
| 2026-05-07 10:00 | 50.89761 | 0.05776 | 10920 ft | 289 kts | 163° |
| 2026-05-07 10:00 | 50.87822 | 0.06688 | 11397 ft | 296 kts | 163° |
| 2026-05-07 10:00 | 50.85795 | 0.07639 | 11623 ft | 312 kts | 164° |
| 2026-05-07 10:01 | 50.83663 | 0.08637 | 11870 ft | 327 kts | 163° |
| 2026-05-07 10:01 | 50.81429 | 0.09684 | 12155 ft | 341 kts | 163° |
| 2026-05-07 10:01 | 50.79136 | 0.10758 | 12701 ft | 345 kts | 164° |
| 2026-05-07 10:01 | 50.76812 | 0.11760 | 13252 ft | 348 kts | 169° |
| 2026-05-07 10:02 | 50.74387 | 0.11675 | 13784 ft | 351 kts | 191° |
| 2026-05-07 10:02 | 50.72010 | 0.10800 | 14369 ft | 352 kts | 194° |
| 2026-05-07 10:02 | 50.69625 | 0.09832 | 14906 ft | 355 kts | 194° |
| 2026-05-07 10:02 | 50.67210 | 0.08935 | 15450 ft | 357 kts | 193° |
| 2026-05-07 10:03 | 50.64776 | 0.08097 | 15955 ft | 360 kts | 193° |
| 2026-05-07 10:03 | 50.62322 | 0.07228 | 16472 ft | 363 kts | 193° |
| 2026-05-07 10:03 | 50.59857 | 0.06322 | 16991 ft | 365 kts | 194° |
| 2026-05-07 10:03 | 50.57370 | 0.05413 | 17495 ft | 368 kts | 193° |
| 2026-05-07 10:04 | 50.54864 | 0.04515 | 17985 ft | 371 kts | 193° |
| 2026-05-07 10:04 | 50.52335 | 0.03611 | 18467 ft | 374 kts | 193° |
| 2026-05-07 10:04 | 50.49794 | 0.02697 | 18889 ft | 376 kts | 193° |
| 2026-05-07 10:04 | 50.47235 | 0.01774 | 19321 ft | 378 kts | 193° |
| 2026-05-07 10:05 | 50.44659 | 0.00849 | 19738 ft | 380 kts | 193° |
| 2026-05-07 10:05 | 50.42109 | -0.00063 | 20131 ft | 383 kts | 194° |
| 2026-05-07 10:05 | 50.39500 | -0.00997 | 20533 ft | 385 kts | 194° |
| 2026-05-07 10:05 | 50.36847 | -0.01946 | 20936 ft | 387 kts | 194° |
| 2026-05-07 10:06 | 50.34245 | -0.02862 | 21324 ft | 389 kts | 193° |
| 2026-05-07 10:06 | 50.31597 | -0.03808 | 21708 ft | 391 kts | 194° |
| 2026-05-07 10:06 | 50.28930 | -0.04776 | 22089 ft | 394 kts | 194° |
| 2026-05-07 10:06 | 50.26253 | -0.05731 | 22464 ft | 396 kts | 194° |
| 2026-05-07 10:07 | 50.23548 | -0.06652 | 22814 ft | 398 kts | 191° |
| 2026-05-07 10:07 | 50.20766 | -0.06766 | 23074 ft | 405 kts | 174° |
| 2026-05-07 10:07 | 50.18038 | -0.05647 | 23430 ft | 409 kts | 159° |
| 2026-05-07 10:07 | 50.15433 | -0.03823 | 23782 ft | 410 kts | 157° |
| 2026-05-07 10:08 | 50.12831 | -0.01945 | 24071 ft | 412 kts | 157° |
| 2026-05-07 10:08 | 50.10205 | -0.00142 | 24362 ft | 413 kts | 160° |
| 2026-05-07 10:08 | 50.07442 | 0.01092 | 24551 ft | 414 kts | 168° |
| 2026-05-07 10:08 | 50.04628 | 0.02124 | 24826 ft | 416 kts | 168° |
| 2026-05-07 10:09 | 50.01850 | 0.03174 | 25113 ft | 418 kts | 167° |
| 2026-05-07 10:09 | 49.99027 | 0.04318 | 25409 ft | 419 kts | 167° |
| 2026-05-07 10:09 | 49.96194 | 0.05465 | 25683 ft | 421 kts | 167° |
| 2026-05-07 10:09 | 49.93347 | 0.06572 | 25947 ft | 422 kts | 168° |
| 2026-05-07 10:10 | 49.90489 | 0.07675 | 26219 ft | 424 kts | 168° |
| 2026-05-07 10:10 | 49.87621 | 0.08801 | 26493 ft | 426 kts | 167° |
| 2026-05-07 10:10 | 49.84741 | 0.09939 | 26766 ft | 428 kts | 167° |
| 2026-05-07 10:10 | 49.81853 | 0.11070 | 27021 ft | 429 kts | 168° |
| 2026-05-07 10:11 | 49.78944 | 0.12200 | 27287 ft | 431 kts | 168° |
| 2026-05-07 10:11 | 49.76032 | 0.13334 | 27554 ft | 433 kts | 168° |
| 2026-05-07 10:11 | 49.73105 | 0.14477 | 27805 ft | 434 kts | 168° |
| 2026-05-07 10:11 | 49.70168 | 0.15621 | 28068 ft | 436 kts | 168° |
| 2026-05-07 10:12 | 49.67260 | 0.16751 | 28323 ft | 437 kts | 168° |
| 2026-05-07 10:12 | 49.65271 | 0.17542 | 28494 ft | 439 kts | 167° |
| 2026-05-07 10:12 | 49.63315 | 0.18343 | 28668 ft | 440 kts | 167° |